createdAt,value
2018-05-05T04:43:09.935Z,80.00
2018-05-05T04:45:42.100Z,80.60
2018-05-05T04:48:14.019Z,80.10
2018-05-05T04:50:45.915Z,79.10
2018-05-05T04:53:17.803Z,78.30
2018-05-05T04:55:49.730Z,76.80
2018-05-05T04:58:21.614Z,76.70
2018-05-05T05:00:53.514Z,75.20
2018-05-05T05:03:25.396Z,72.80
2018-05-05T05:05:58.061Z,64.60
2018-05-05T05:08:30.263Z,64.60
2018-05-05T05:11:02.177Z,59.60
2018-05-05T05:13:34.054Z,57.50
2018-05-05T05:16:06.727Z,54.00
2018-05-05T05:18:38.935Z,54.00
2018-05-05T05:21:11.100Z,53.30
2018-05-05T05:23:42.981Z,49.50
2018-05-05T05:26:14.877Z,50.60
2018-05-05T05:28:46.787Z,48.20
2018-05-05T05:31:18.677Z,49.10
2018-05-05T05:33:50.565Z,48.40
2018-05-05T05:36:22.842Z,46.30
2018-05-05T05:38:55.493Z,44.60
2018-05-05T05:41:27.716Z,44.50
2018-05-05T05:43:59.598Z,42.80
2018-05-05T05:46:31.568Z,42.10
2018-05-05T05:49:03.702Z,42.60
2018-05-05T05:51:35.716Z,41.00
2018-05-05T05:54:07.606Z,39.80
2018-05-05T05:56:40.350Z,40.30
2018-05-05T05:59:12.237Z,40.30
2018-05-05T06:01:44.910Z,38.30
2018-05-05T06:04:16.818Z,38.30
2018-05-05T06:06:48.705Z,38.20
2018-05-05T06:09:20.594Z,36.90
2018-05-05T06:11:52.502Z,37.70
2018-05-05T06:14:24.377Z,37.50
2018-05-05T06:16:56.281Z,39.00
2018-05-05T06:19:28.930Z,38.90
2018-05-05T06:22:01.162Z,38.70
2018-05-05T06:24:33.328Z,38.30
2018-05-05T06:27:05.213Z,37.10
2018-05-05T06:29:37.102Z,37.20
2018-05-05T06:32:09.789Z,36.50
2018-05-05T06:34:41.986Z,36.50
2018-05-05T06:37:14.190Z,35.70
2018-05-05T06:39:46.326Z,34.50
2018-05-05T06:42:18.225Z,34.00
2018-05-05T06:44:50.113Z,34.00
2018-05-05T06:47:22.789Z,34.40
2018-05-05T06:49:54.990Z,34.30
2018-05-05T06:52:26.885Z,35.20
2018-05-05T06:54:59.013Z,34.10
2018-05-05T06:57:30.925Z,33.40
2018-05-05T07:00:03.043Z,32.20
2018-05-05T07:02:34.938Z,31.50
2018-05-05T07:05:06.890Z,30.40
2018-05-05T07:07:39.134Z,31.20
2018-05-05T07:10:11.022Z,30.60
2018-05-05T07:12:42.937Z,30.00
2018-05-05T07:15:15.838Z,30.40
2018-05-05T07:17:47.749Z,30.50
2018-05-05T07:20:19.641Z,31.10
2018-05-05T07:22:52.314Z,30.10
2018-05-05T07:25:24.210Z,30.10
2018-05-05T07:27:56.121Z,29.70
2018-05-05T07:30:28.001Z,30.50
2018-05-05T07:33:00.902Z,29.90
2018-05-05T07:35:32.805Z,29.90
2018-05-05T07:38:04.755Z,31.00
2018-05-05T07:40:36.899Z,30.70
2018-05-05T07:43:08.815Z,29.80
2018-05-05T07:45:40.702Z,29.80
2018-05-05T07:48:13.365Z,29.20
2018-05-05T07:50:46.013Z,29.30
2018-05-05T07:53:17.927Z,29.30
2018-05-05T07:55:49.827Z,29.50
2018-05-05T07:58:21.734Z,30.10
2018-05-05T08:00:54.395Z,30.20
2018-05-05T08:03:26.316Z,30.20
2018-05-05T08:05:58.190Z,30.60
2018-05-05T08:08:30.111Z,30.10
2018-05-05T08:11:02.274Z,29.70
2018-05-05T08:13:34.443Z,29.90
2018-05-05T08:16:06.610Z,31.00
2018-05-05T08:18:38.514Z,30.60
2018-05-05T08:21:10.437Z,30.90
2018-05-05T08:23:42.342Z,31.80
2018-05-05T08:26:14.218Z,31.30
2018-05-05T08:28:46.129Z,30.80
2018-05-05T08:31:18.014Z,31.50
2018-05-05T08:33:49.927Z,32.00
2018-05-05T08:36:21.827Z,32.20
2018-05-05T08:38:53.967Z,32.00
2018-05-05T08:41:26.130Z,32.50
2018-05-05T08:43:58.038Z,32.30
2018-05-05T08:46:29.925Z,32.50
2018-05-05T08:49:02.602Z,32.30
2018-05-05T08:51:35.262Z,32.50
2018-05-05T08:54:07.203Z,32.50
2018-05-05T08:56:39.336Z,32.20
2018-05-05T08:59:11.504Z,31.80
2018-05-05T09:01:43.669Z,31.70
2018-05-05T09:04:15.588Z,32.00
2018-05-05T09:06:47.470Z,31.30
2018-05-05T09:09:20.164Z,32.00
2018-05-05T09:11:52.045Z,31.90
2018-05-05T09:14:25.117Z,32.10
2018-05-05T09:16:57.002Z,32.90
2018-05-05T09:19:28.889Z,33.10
2018-05-05T09:22:00.795Z,33.00
2018-05-05T09:24:32.705Z,31.60
2018-05-05T09:27:04.587Z,32.40
2018-05-05T09:29:37.261Z,32.80
2018-05-05T09:32:10.178Z,33.10
2018-05-05T09:34:42.122Z,32.90
2018-05-05T09:37:14.767Z,33.00
2018-05-05T09:39:47.089Z,33.00
2018-05-05T09:42:19.255Z,33.00
2018-05-05T09:44:51.155Z,32.60
2018-05-05T09:47:23.047Z,32.80
2018-05-05T09:49:55.747Z,32.90
2018-05-05T09:52:28.384Z,32.70
2018-05-05T09:55:00.284Z,32.60
2018-05-05T09:57:33.189Z,32.80
2018-05-05T10:00:05.105Z,32.80
2018-05-05T10:02:37.759Z,33.10
2018-05-05T10:05:09.652Z,32.80
2018-05-05T10:07:42.313Z,34.40
2018-05-05T10:10:14.214Z,33.80
2018-05-05T10:12:46.382Z,33.20
2018-05-05T10:15:18.274Z,32.60
2018-05-05T10:17:50.177Z,32.50
2018-05-05T10:20:22.850Z,32.00
2018-05-05T10:22:55.498Z,32.40
2018-05-05T10:25:27.404Z,32.40
2018-05-05T10:28:00.054Z,31.20
2018-05-05T10:30:31.954Z,31.20
2018-05-05T10:33:03.855Z,30.80
2018-05-05T10:35:35.762Z,31.60
2018-05-05T10:38:08.662Z,32.00
2018-05-05T10:40:40.830Z,32.00
2018-05-05T10:43:12.709Z,31.00
2018-05-05T10:45:44.957Z,31.00
2018-05-05T10:48:16.842Z,31.00
2018-05-05T10:50:48.746Z,31.50
2018-05-05T10:53:20.954Z,32.20
2018-05-05T10:55:52.855Z,32.70
2018-05-05T10:58:24.742Z,32.30
2018-05-05T11:00:57.654Z,33.60
2018-05-05T11:03:29.821Z,33.60
2018-05-05T11:06:01.730Z,33.80
2018-05-05T11:08:33.676Z,34.40
2018-05-05T11:11:05.529Z,34.90
2018-05-05T11:13:37.670Z,34.70
2018-05-05T11:16:09.575Z,35.60
2018-05-05T11:18:41.514Z,35.00
2018-05-05T11:21:13.418Z,35.70
2018-05-05T11:23:46.166Z,35.60
2018-05-05T11:26:17.994Z,35.50
2018-05-05T11:28:50.158Z,35.90
2018-05-05T11:31:22.048Z,36.10
2018-05-05T11:33:53.943Z,35.00
2018-05-05T11:36:26.146Z,35.00
2018-05-05T11:38:58.033Z,36.20
2018-05-05T11:41:29.941Z,35.40
2018-05-05T11:44:02.594Z,34.80
2018-05-05T11:46:34.811Z,34.70
2018-05-05T11:49:06.705Z,34.60
2018-05-05T11:51:38.597Z,34.90
2018-05-05T11:54:10.485Z,34.60
2018-05-05T11:56:42.388Z,34.50
2018-05-05T11:59:14.494Z,33.70
2018-05-05T12:01:47.246Z,35.00
2018-05-05T12:04:19.081Z,35.00
2018-05-05T12:06:50.994Z,33.80
2018-05-05T12:09:23.905Z,34.00
2018-05-05T12:11:55.791Z,34.00
2018-05-05T12:14:27.932Z,34.50
2018-05-05T12:16:59.839Z,34.70
2018-05-05T12:19:31.723Z,34.10
2018-05-05T12:22:04.393Z,33.70
2018-05-05T12:24:36.281Z,33.70
2018-05-05T12:27:08.177Z,33.50
2018-05-05T12:29:40.109Z,33.40
2018-05-05T12:32:12.280Z,33.70
2018-05-05T12:34:44.191Z,34.20
2018-05-05T12:37:16.082Z,35.00
2018-05-05T12:39:48.750Z,31.70
2018-05-05T12:42:21.402Z,30.40
2018-05-05T12:44:53.291Z,30.40
2018-05-05T12:47:25.958Z,30.30
2018-05-05T12:49:57.885Z,30.30
2018-05-05T12:52:29.742Z,29.70
2018-05-05T12:55:01.711Z,30.40
2018-05-05T12:57:33.650Z,29.80
2018-05-05T13:00:05.531Z,28.40
2018-05-05T13:02:38.230Z,28.60
2018-05-05T13:05:10.117Z,28.60
2018-05-05T13:07:42.773Z,27.90
2018-05-05T13:10:14.658Z,27.80
2018-05-05T13:12:47.330Z,29.30
2018-05-05T13:15:19.222Z,29.20
2018-05-05T13:17:51.113Z,28.50
2018-05-05T13:20:22.985Z,28.20
2018-05-05T13:22:55.106Z,29.00
2018-05-05T13:25:26.998Z,28.40
2018-05-05T13:27:58.904Z,28.60
2018-05-05T13:30:31.557Z,28.10
2018-05-05T13:33:03.464Z,28.10
2018-05-05T13:35:35.372Z,28.90
2018-05-05T13:38:07.270Z,28.30
2018-05-05T13:40:40.157Z,28.80
2018-05-05T13:43:12.814Z,30.00
2018-05-05T13:45:45.578Z,31.50
2018-05-05T13:48:17.401Z,30.90
2018-05-05T13:50:49.280Z,29.10
2018-05-05T13:53:21.204Z,29.30
2018-05-05T13:55:53.074Z,28.10
2018-05-05T13:58:24.969Z,28.80
2018-05-05T14:00:56.885Z,28.90
2018-05-05T14:03:28.785Z,29.10
2018-05-05T14:06:01.457Z,29.90
2018-05-05T14:08:33.342Z,29.90
2018-05-05T14:11:05.448Z,28.30
2018-05-05T14:13:37.621Z,27.60
2018-05-05T14:16:09.506Z,27.60
2018-05-05T14:18:41.397Z,27.10
2018-05-05T14:21:13.606Z,27.40
2018-05-05T14:23:45.525Z,27.40
2018-05-05T14:26:17.443Z,26.50
2018-05-05T14:28:50.069Z,27.40
2018-05-05T14:31:21.972Z,27.40
2018-05-05T14:33:54.651Z,26.90
2018-05-05T14:36:26.538Z,26.90
2018-05-05T14:38:59.212Z,27.10
2018-05-05T14:41:31.093Z,27.00
2018-05-05T14:44:02.980Z,27.20
2018-05-05T14:46:35.897Z,28.30
2018-05-05T14:49:07.794Z,28.30
2018-05-05T14:51:39.916Z,28.00
2018-05-05T14:54:11.829Z,28.00
2018-05-05T14:56:43.716Z,28.90
2018-05-05T14:59:16.365Z,28.30
2018-05-05T15:01:48.330Z,28.20
2018-05-05T15:04:20.546Z,28.70
2018-05-05T15:06:52.656Z,29.00
2018-05-05T15:09:24.566Z,29.10
2018-05-05T15:11:56.446Z,29.00
2018-05-05T15:14:28.349Z,29.20
2018-05-05T15:17:00.278Z,28.90
2018-05-05T15:19:32.899Z,28.90
2018-05-05T15:22:04.765Z,28.80
2018-05-05T15:24:37.469Z,28.50
2018-05-05T15:27:09.345Z,28.50
2018-05-05T15:29:41.289Z,28.50
2018-05-05T15:32:13.166Z,28.60
2018-05-05T15:34:45.069Z,28.90
2018-05-05T15:37:16.945Z,28.90
2018-05-05T15:39:48.832Z,28.90
2018-05-05T15:42:20.719Z,28.70
2018-05-05T15:44:52.618Z,29.40
2018-05-05T15:47:24.489Z,28.40
2018-05-05T15:49:57.398Z,28.90
2018-05-05T15:52:29.283Z,28.90
2018-05-05T15:55:01.182Z,28.30
2018-05-05T15:57:33.054Z,28.30
2018-05-05T16:00:05.722Z,29.70
2018-05-05T16:02:37.593Z,29.60
2018-05-05T16:05:10.290Z,29.30
2018-05-05T16:07:42.165Z,29.30
2018-05-05T16:10:14.046Z,29.30
2018-05-05T16:12:45.944Z,29.40
2018-05-05T16:15:17.827Z,29.70
2018-05-05T16:17:49.857Z,29.60
2018-05-05T16:20:21.750Z,29.80
2018-05-05T16:22:54.403Z,30.00
2018-05-05T16:25:27.083Z,30.10
2018-05-05T16:27:58.966Z,30.00
2018-05-05T16:30:31.857Z,29.90
2018-05-05T16:33:03.734Z,29.90
2018-05-05T16:35:35.621Z,29.30
2018-05-05T16:38:07.526Z,28.60
2018-05-05T16:40:40.266Z,29.40
2018-05-05T16:43:12.080Z,29.40
2018-05-05T16:45:43.977Z,29.50
2018-05-05T16:48:15.857Z,29.70
2018-05-05T16:50:47.750Z,29.10
2018-05-05T16:53:20.401Z,29.50
2018-05-05T16:55:52.614Z,29.40
2018-05-05T16:58:24.489Z,29.30
2018-05-05T17:00:56.378Z,31.60
2018-05-05T17:03:28.602Z,35.40
2018-05-05T17:06:00.579Z,35.80
2018-05-05T17:08:32.583Z,36.50
2018-05-05T17:11:05.366Z,37.30
2018-05-05T17:13:37.363Z,37.30
2018-05-05T17:16:09.397Z,37.10
2018-05-05T17:18:42.192Z,37.80
2018-05-05T17:21:14.240Z,37.80
2018-05-05T17:23:46.997Z,38.20
2018-05-05T17:26:19.025Z,38.20
2018-05-05T17:28:51.008Z,38.20
2018-05-05T17:31:23.146Z,38.20
2018-05-05T17:33:55.149Z,38.40
2018-05-05T17:36:27.194Z,38.70
2018-05-05T17:38:59.193Z,38.80
2018-05-05T17:41:31.245Z,39.00
2018-05-05T17:44:03.240Z,38.90
2018-05-05T17:46:36.118Z,39.80
2018-05-05T17:49:08.882Z,39.50
2018-05-05T17:51:40.949Z,39.50
2018-05-05T17:54:13.719Z,40.00
2018-05-05T17:56:45.672Z,39.50
2018-05-05T17:59:17.693Z,39.80
2018-05-05T18:01:49.762Z,40.80
2018-05-05T18:04:21.841Z,40.50
2018-05-05T18:06:53.883Z,40.20
2018-05-05T18:09:25.913Z,40.50
2018-05-05T18:11:57.953Z,40.60
2018-05-05T18:14:29.927Z,40.80
2018-05-05T18:17:01.971Z,41.00
2018-05-05T18:19:34.829Z,41.30
2018-05-05T18:22:06.993Z,41.60
2018-05-05T18:24:38.877Z,41.50
2018-05-05T18:27:10.862Z,41.80
2018-05-05T18:29:44.554Z,42.00
2018-05-05T18:32:16.700Z,42.00
2018-05-05T18:34:49.405Z,42.40
2018-05-05T18:37:21.305Z,42.30
2018-05-05T18:39:53.951Z,42.90
2018-05-05T18:42:25.849Z,42.80
2018-05-05T18:44:58.576Z,43.20
2018-05-05T18:47:30.401Z,43.20
2018-05-05T18:50:02.282Z,44.30
2018-05-05T18:52:34.202Z,43.80
2018-05-05T18:55:06.951Z,44.10
2018-05-05T18:57:38.853Z,44.10
2018-05-05T19:00:11.589Z,44.30
2018-05-05T19:02:43.495Z,44.20
2018-05-05T19:05:16.166Z,44.80
2018-05-05T19:07:48.817Z,44.90
2018-05-05T19:10:20.725Z,44.80
2018-05-05T19:12:52.609Z,45.00
2018-05-05T19:15:24.485Z,45.40
2018-05-05T19:17:56.386Z,45.40
2018-05-05T19:20:29.285Z,46.10
2018-05-05T19:23:01.450Z,46.00
2018-05-05T19:25:33.325Z,46.50
2018-05-05T19:28:05.236Z,46.60
2018-05-05T19:30:37.132Z,46.70
2018-05-05T19:33:09.777Z,47.30
2018-05-05T19:35:41.657Z,47.30
2018-05-05T19:38:14.554Z,47.80
2018-05-05T19:40:46.440Z,47.80
2018-05-05T19:43:18.330Z,47.90
2018-05-05T19:45:50.205Z,48.10
2018-05-05T19:48:22.126Z,48.40
2018-05-05T19:50:54.003Z,49.00
2018-05-05T19:53:26.033Z,48.80
2018-05-05T19:55:58.034Z,49.10
2018-05-05T19:58:30.062Z,49.20
2018-05-05T20:01:02.056Z,49.60
2018-05-05T20:03:34.086Z,49.90
2018-05-05T20:06:06.083Z,49.90
2018-05-05T20:08:38.895Z,50.50
2018-05-05T20:11:11.664Z,50.60
2018-05-05T20:13:44.581Z,50.90
2018-05-05T20:16:16.755Z,50.90
2018-05-05T20:18:48.668Z,51.10
2018-05-05T20:21:20.629Z,51.20
2018-05-05T20:23:52.591Z,51.30
2018-05-05T20:26:24.556Z,51.50
2018-05-05T20:28:56.446Z,51.50
2018-05-05T20:31:29.092Z,52.20
2018-05-05T20:34:01.307Z,52.20
2018-05-05T20:36:33.195Z,52.40
2018-05-05T20:39:05.081Z,52.70
2018-05-05T20:41:37.035Z,53.60
